KMCI/MCI METAR and TAF weather

Enter ICAO airport designator
Station Type Date Time Source
KMCI METAR 2019/04/25 09:53 UTC NOAA

KMCI 250953Z 22003KT 3SM R19R/1200V4000FT BR FEW002 SCT200 08/08 A2978 RMK AO2 SLP082 T00830083


Station Type Date Time Source
KMCI Decoded METAR 2019/04/25 09:53 UTC NOAA

KANSAS CITY INTERNATIONAL AIRPORT, MO, United States (KMCI) 39-18N 94-44W 320M
Apr 25, 2019 - 05:53 AM EDT / 2019.04.25 0953 UTC
Wind: from the SW (220 degrees) at 3 MPH (3 KT) (direction variable):0
Visibility: 3 mile(s):0
Sky conditions: partly cloudy
Weather: mist
Temperature: 46.9 F (8.3 C)
Dew Point: 46.9 F (8.3 C)
Relative Humidity: 100%
Pressure (altimeter): 29.78 in. Hg (1008 hPa)
ob: KMCI 250953Z 22003KT 3SM R19R/1200V4000FT BR FEW002 SCT200 08/08 A2978 RMK AO2 SLP082 T00830083
cycle: 10

Station Type Date Time Source
KMCI TAF 2019/04/25 07:12 UTC NOAA

TAF
AMD KMCI 250709Z 2507/2606 VRB03KT 3SM BR SKC
FM251000 VRB03KT 4SM BR FEW020 SCT250
FM251300 29008KT P6SM FEW150
FM252000 35015G25KT P6SM VCSH BKN050
FM260000 33011KT P6SM SKC

Example: see airport list